Time;durP1;ratioP1;P1;durP2;ratioP2;P2;SDS_P1;SDS_P2;PMS_P1;PMS_P2;Temp;Humidity;BMP_temperature;BMP_pressure;BME280_temperature;BME280_humidity;BME280_pressure;Samples;Min_cycle;Max_cycle;Signal;HPM_P1;HPM_P2
2023/01/10 00:01:08;;;;;;;14.80;3.65;;;;;;;;;;6107440;19;20011;-74
2023/01/10 00:03:19;;;;;;;19.73;3.25;;;;;;;;;;6108912;19;20229;-74
2023/01/10 00:05:23;;;;;;;15.38;3.05;;;;;;;;;;6107102;19;20010;-74
2023/01/10 00:07:28;;;;;;;7.57;2.25;;;;;;;;;;6108558;19;20031;-75
2023/01/10 00:09:36;;;;;;;12.80;2.70;;;;;;;;;;6105174;19;20130;-74
2023/01/10 00:14:03;;;;;;;14.43;2.50;;;;;;;;;;6102518;19;20015;-75
2023/01/10 00:16:10;;;;;;;11.65;2.90;;;;;;;;;;6106072;19;20018;-75
2023/01/10 00:18:15;;;;;;;17.75;2.45;;;;;;;;;;6103479;19;20014;-75
2023/01/10 00:20:22;;;;;;;10.35;2.65;;;;;;;;;;6105901;19;20476;-75
2023/01/10 00:22:27;;;;;;;9.10;2.28;;;;;;;;;;6104387;19;20366;-75
2023/01/10 00:24:32;;;;;;;10.57;2.40;;;;;;;;;;6106435;19;20014;-75
2023/01/10 00:26:37;;;;;;;16.98;3.28;;;;;;;;;;6104644;19;20050;-74
2023/01/10 00:28:42;;;;;;;15.55;3.55;;;;;;;;;;6099836;19;20649;-74
2023/01/10 00:30:59;;;;;;;14.35;3.83;;;;;;;;;;6082261;19;20609;-73
2023/01/10 00:33:06;;;;;;;18.13;2.90;;;;;;;;;;6104397;19;20359;-73
2023/01/10 00:35:14;;;;;;;11.95;3.08;;;;;;;;;;6104293;19;20526;-74
2023/01/10 00:37:19;;;;;;;12.82;2.85;;;;;;;;;;6082962;19;20644;-75
2023/01/10 00:39:26;;;;;;;11.00;2.90;;;;;;;;;;6102831;19;20094;-73
2023/01/10 00:44:02;;;;;;;12.63;2.72;;;;;;;;;;6101424;19;20038;-73
2023/01/10 00:46:10;;;;;;;16.90;3.25;;;;;;;;;;6100792;19;20011;-75
2023/01/10 00:48:14;;;;;;;12.13;2.83;;;;;;;;;;6107875;19;20118;-75
2023/01/10 00:50:20;;;;;;;15.10;2.95;;;;;;;;;;6105649;19;20021;-74
2023/01/10 00:52:25;;;;;;;16.73;2.78;;;;;;;;;;6102608;19;20014;-76
2023/01/10 00:54:33;;;;;;;11.02;2.83;;;;;;;;;;6106721;19;20010;-74
2023/01/10 00:56:44;;;;;;;16.77;2.92;;;;;;;;;;6104569;19;20007;-75
2023/01/10 00:58:48;;;;;;;11.98;2.78;;;;;;;;;;6105194;19;20207;-74
2023/01/10 01:00:53;;;;;;;16.45;2.78;;;;;;;;;;6102260;19;20021;-75
2023/01/10 01:03:01;;;;;;;13.27;2.70;;;;;;;;;;6105473;19;20015;-74
2023/01/10 01:05:07;;;;;;;14.38;3.15;;;;;;;;;;6107136;19;20007;-75
2023/01/10 01:07:12;;;;;;;10.73;3.05;;;;;;;;;;6105949;19;20034;-76
2023/01/10 01:09:17;;;;;;;12.80;2.50;;;;;;;;;;6103817;19;20022;-75
2023/01/10 01:11:19;;;;;;;17.90;3.15;;;;;;;;;;6102478;19;20657;-75
2023/01/10 01:13:27;;;;;;;13.98;2.70;;;;;;;;;;6082611;19;20002;-73
2023/01/10 01:15:35;;;;;;;16.08;4.05;;;;;;;;;;6059241;19;20543;-74
2023/01/10 01:17:40;;;;;;;9.15;2.65;;;;;;;;;;6101399;19;20007;-72
2023/01/10 01:19:48;;;;;;;14.43;2.95;;;;;;;;;;6101914;19;20412;-74
2023/01/10 01:21:53;;;;;;;9.95;3.08;;;;;;;;;;6104056;19;20002;-74
2023/01/10 01:23:58;;;;;;;13.70;2.97;;;;;;;;;;6104384;19;20014;-75
2023/01/10 01:26:05;;;;;;;14.55;3.97;;;;;;;;;;6100554;19;20013;-75
2023/01/10 01:28:10;;;;;;;14.57;3.60;;;;;;;;;;6104615;19;20444;-75
2023/01/10 01:30:18;;;;;;;13.93;3.33;;;;;;;;;;6099081;19;21021;-75
2023/01/10 01:32:23;;;;;;;20.05;3.92;;;;;;;;;;6099419;19;20439;-74
2023/01/10 01:34:29;;;;;;;14.55;3.05;;;;;;;;;;6105874;19;20010;-75
2023/01/10 01:36:37;;;;;;;10.93;2.38;;;;;;;;;;6103500;19;20015;-75
2023/01/10 01:38:43;;;;;;;15.48;2.88;;;;;;;;;;6098164;19;20018;-74
2023/01/10 01:40:48;;;;;;;16.27;3.47;;;;;;;;;;6100058;19;20011;-75
2023/01/10 01:42:54;;;;;;;11.77;3.25;;;;;;;;;;6103401;19;20022;-75
2023/01/10 01:45:41;;;;;;;14.88;3.40;;;;;;;;;;6053105;19;20021;-73
2023/01/10 01:47:49;;;;;;;10.57;3.10;;;;;;;;;;6079351;19;20025;-74
2023/01/10 01:49:56;;;;;;;19.60;3.10;;;;;;;;;;6101050;19;20023;-73
2023/01/10 01:52:12;;;;;;;15.57;4.00;;;;;;;;;;6100929;19;20535;-74
2023/01/10 01:54:21;;;;;;;12.45;2.83;;;;;;;;;;6101966;19;20466;-72
2023/01/10 01:56:32;;;;;;;17.63;3.70;;;;;;;;;;6103633;19;20507;-74
2023/01/10 01:58:43;;;;;;;19.38;3.25;;;;;;;;;;6101227;19;20102;-73
2023/01/10 02:00:48;;;;;;;14.07;3.40;;;;;;;;;;6099587;19;20023;-74
2023/01/10 02:02:58;;;;;;;14.32;3.20;;;;;;;;;;6101085;19;20342;-74
2023/01/10 02:05:09;;;;;;;12.85;3.65;;;;;;;;;;6104019;19;20011;-73
2023/01/10 02:07:17;;;;;;;16.17;3.95;;;;;;;;;;6104937;19;20355;-74
2023/01/10 02:09:28;;;;;;;20.52;3.70;;;;;;;;;;6105136;19;20479;-76
2023/01/10 02:11:33;;;;;;;9.90;4.15;;;;;;;;;;6105461;19;20015;-74
2023/01/10 02:13:44;;;;;;;15.82;3.08;;;;;;;;;;6103309;19;20018;-75
2023/01/10 02:15:49;;;;;;;14.68;3.70;;;;;;;;;;6105343;19;20035;-75
2023/01/10 02:17:55;;;;;;;10.60;3.13;;;;;;;;;;6106571;19;20578;-76
2023/01/10 02:20:03;;;;;;;20.00;4.13;;;;;;;;;;6104950;19;20014;-75
2023/01/10 02:22:30;;;;;;;19.60;5.45;;;;;;;;;;6104087;19;20585;-75
2023/01/10 02:25:01;;;;;;;16.45;4.22;;;;;;;;;;6105133;19;20011;-75
2023/01/10 02:27:19;;;;;;;15.10;3.38;;;;;;;;;;6100587;19;20614;-75
2023/01/10 02:30:04;;;;;;;12.85;2.95;;;;;;;;;;6098538;19;20511;-74
2023/01/10 02:32:22;;;;;;;17.25;3.60;;;;;;;;;;6103699;19;20021;-75
2023/01/10 02:34:54;;;;;;;18.73;2.92;;;;;;;;;;6100519;19;20006;-75
2023/01/10 02:37:05;;;;;;;16.30;2.97;;;;;;;;;;6105887;19;20011;-75
2023/01/10 02:39:16;;;;;;;23.17;4.70;;;;;;;;;;6104198;19;20256;-75
2023/01/10 02:41:29;;;;;;;13.70;3.53;;;;;;;;;;6103243;19;20445;-74
2023/01/10 02:43:37;;;;;;;9.50;3.00;;;;;;;;;;6105855;19;20006;-74
2023/01/10 02:45:45;;;;;;;11.90;3.08;;;;;;;;;;6102106;19;20010;-74
2023/01/10 02:47:53;;;;;;;18.10;3.97;;;;;;;;;;6103793;19;20448;-74
2023/01/10 02:49:58;;;;;;;19.23;3.00;;;;;;;;;;6091530;19;20010;-76
2023/01/10 02:52:03;;;;;;;18.02;3.55;;;;;;;;;;6077679;19;20011;-73
2023/01/10 02:54:13;;;;;;;17.02;3.55;;;;;;;;;;6097938;19;20015;-73
2023/01/10 02:56:47;;;;;;;18.83;3.42;;;;;;;;;;6103607;19;20014;-75
2023/01/10 02:59:10;;;;;;;15.63;3.33;;;;;;;;;;6099954;19;20018;-74
2023/01/10 03:01:18;;;;;;;12.25;3.05;;;;;;;;;;6102080;19;20615;-75
2023/01/10 03:03:37;;;;;;;15.57;3.45;;;;;;;;;;6101192;19;20014;-75
2023/01/10 03:05:52;;;;;;;21.08;3.42;;;;;;;;;;6103346;19;20092;-75
2023/01/10 03:08:03;;;;;;;19.00;4.53;;;;;;;;;;6102835;19;20018;-75
2023/01/10 03:10:10;;;;;;;22.73;4.63;;;;;;;;;;6104772;19;20014;-74
2023/01/10 03:12:20;;;;;;;18.75;3.83;;;;;;;;;;6105015;19;20022;-76
2023/01/10 03:14:33;;;;;;;15.75;4.05;;;;;;;;;;6102225;19;20014;-76
2023/01/10 03:16:42;;;;;;;13.90;3.93;;;;;;;;;;6102878;19;20017;-75
2023/01/10 03:18:54;;;;;;;14.95;3.83;;;;;;;;;;6100733;19;20367;-76
2023/01/10 03:21:00;;;;;;;12.43;3.35;;;;;;;;;;6101010;19;20296;-75
2023/01/10 03:23:06;;;;;;;15.07;3.20;;;;;;;;;;6101990;19;20014;-75
2023/01/10 03:25:16;;;;;;;12.77;3.63;;;;;;;;;;6101144;19;20149;-76
2023/01/10 03:27:26;;;;;;;12.32;3.20;;;;;;;;;;6105207;19;20043;-75
2023/01/10 03:29:35;;;;;;;9.25;3.47;;;;;;;;;;6103876;19;20006;-75
2023/01/10 03:31:45;;;;;;;18.10;3.83;;;;;;;;;;6102943;19;20056;-75
2023/01/10 03:33:52;;;;;;;14.90;4.45;;;;;;;;;;6104058;19;20015;-75
2023/01/10 03:36:06;;;;;;;17.05;3.67;;;;;;;;;;6102315;19;20007;-75
2023/01/10 03:38:14;;;;;;;20.00;4.85;;;;;;;;;;6101923;19;20015;-75
2023/01/10 03:40:24;;;;;;;14.73;3.90;;;;;;;;;;6103701;19;20073;-75
2023/01/10 03:44:42;;;;;;;19.40;4.22;;;;;;;;;;6103330;19;20463;-74
2023/01/10 03:45:03;;;;;;;18.55;3.55;;;;;;;;;;6094014;19;20037;-73
2023/01/10 03:47:11;;;;;;;16.98;4.88;;;;;;;;;;6102381;19;20010;-74
2023/01/10 03:49:22;;;;;;;19.20;3.75;;;;;;;;;;6080936;19;20476;-74
2023/01/10 03:51:28;;;;;;;13.60;3.58;;;;;;;;;;6106544;19;20011;-73
2023/01/10 03:53:42;;;;;;;15.73;3.78;;;;;;;;;;6102924;19;20017;-74
2023/01/10 03:55:48;;;;;;;15.07;3.40;;;;;;;;;;6104998;19;20047;-73
2023/01/10 03:57:53;;;;;;;17.30;3.90;;;;;;;;;;6107546;19;20016;-74
2023/01/10 04:00:00;;;;;;;18.27;3.83;;;;;;;;;;6107424;19;20014;-74
2023/01/10 04:02:06;;;;;;;18.13;3.50;;;;;;;;;;6105203;19;20172;-74
2023/01/10 04:04:14;;;;;;;20.25;3.80;;;;;;;;;;6110395;19;20022;-77
2023/01/10 04:06:23;;;;;;;13.65;3.08;;;;;;;;;;6108599;19;21423;-76
2023/01/10 04:08:28;;;;;;;17.42;4.13;;;;;;;;;;6081452;19;20385;-73
2023/01/10 04:10:36;;;;;;;18.63;4.13;;;;;;;;;;6107812;19;20376;-73
2023/01/10 04:12:42;;;;;;;12.75;3.28;;;;;;;;;;6080330;19;20014;-74
2023/01/10 04:14:48;;;;;;;13.07;3.40;;;;;;;;;;6058175;19;20101;-74
2023/01/10 04:16:54;;;;;;;15.45;3.75;;;;;;;;;;6081125;19;20459;-74
2023/01/10 04:19:04;;;;;;;22.58;4.97;;;;;;;;;;6106787;19;25429;-74
2023/01/10 04:21:12;;;;;;;16.05;3.65;;;;;;;;;;6102889;19;20035;-73
2023/01/10 04:23:20;;;;;;;17.63;3.40;;;;;;;;;;6103487;19;20570;-73
2023/01/10 04:25:26;;;;;;;19.33;3.65;;;;;;;;;;6106821;19;20015;-73
2023/01/10 04:27:34;;;;;;;15.90;3.80;;;;;;;;;;6082812;19;20405;-74
2023/01/10 04:29:41;;;;;;;20.33;4.25;;;;;;;;;;6107389;19;20007;-73
2023/01/10 04:31:46;;;;;;;17.17;3.55;;;;;;;;;;6097943;19;20019;-73
2023/01/10 04:33:55;;;;;;;15.00;3.75;;;;;;;;;;6107639;19;20370;-73
2023/01/10 04:36:00;;;;;;;26.77;4.72;;;;;;;;;;6108143;19;20492;-76
2023/01/10 04:38:05;;;;;;;19.35;3.60;;;;;;;;;;6106921;19;20678;-76
2023/01/10 04:40:18;;;;;;;18.10;3.85;;;;;;;;;;6107706;19;20413;-76
2023/01/10 04:42:23;;;;;;;18.67;3.85;;;;;;;;;;6106217;19;20022;-75
2023/01/10 04:44:27;;;;;;;8.95;2.42;;;;;;;;;;6107219;19;20042;-75
2023/01/10 04:46:32;;;;;;;12.98;4.05;;;;;;;;;;6105887;19;20010;-76
2023/01/10 04:48:38;;;;;;;13.07;3.15;;;;;;;;;;6105606;19;20013;-75
2023/01/10 04:50:43;;;;;;;11.43;3.42;;;;;;;;;;6102693;19;20009;-75
2023/01/10 04:52:52;;;;;;;13.77;3.35;;;;;;;;;;6099844;19;20479;-73
2023/01/10 04:54:58;;;;;;;11.25;3.72;;;;;;;;;;6107134;19;20035;-73
2023/01/10 04:57:06;;;;;;;14.10;3.47;;;;;;;;;;6083633;19;20015;-74
2023/01/10 04:59:12;;;;;;;17.65;3.55;;;;;;;;;;6105476;19;20086;-75
2023/01/10 05:01:19;;;;;;;13.30;2.95;;;;;;;;;;6105156;19;20174;-75
2023/01/10 05:03:25;;;;;;;12.07;4.05;;;;;;;;;;6104036;19;20038;-74
2023/01/10 05:05:34;;;;;;;16.00;4.40;;;;;;;;;;6082129;19;20007;-73
2023/01/10 05:07:39;;;;;;;15.27;3.65;;;;;;;;;;6102189;19;20034;-74
2023/01/10 05:09:46;;;;;;;19.77;4.10;;;;;;;;;;6101928;19;20015;-74
2023/01/10 05:11:53;;;;;;;10.48;3.60;;;;;;;;;;6106113;19;20082;-73
2023/01/10 05:14:03;;;;;;;16.95;4.95;;;;;;;;;;6079788;19;20011;-73
2023/01/10 05:16:14;;;;;;;18.00;3.33;;;;;;;;;;6100995;19;20011;-73
2023/01/10 05:18:23;;;;;;;13.90;3.78;;;;;;;;;;6104755;19;20527;-74
2023/01/10 05:20:36;;;;;;;16.90;3.42;;;;;;;;;;6105213;19;20010;-73
2023/01/10 05:22:41;;;;;;;18.95;3.85;;;;;;;;;;6101569;19;20006;-73
2023/01/10 05:24:51;;;;;;;16.27;3.90;;;;;;;;;;6078527;19;20110;-74
2023/01/10 05:26:58;;;;;;;14.50;3.90;;;;;;;;;;6082922;19;20180;-74
2023/01/10 05:29:13;;;;;;;13.57;3.75;;;;;;;;;;6100672;19;20386;-73
2023/01/10 05:31:20;;;;;;;14.57;3.70;;;;;;;;;;6105294;19;20093;-74
2023/01/10 05:33:30;;;;;;;16.98;3.42;;;;;;;;;;6089037;19;20009;-73
2023/01/10 05:35:39;;;;;;;20.00;3.42;;;;;;;;;;6080607;19;20011;-74
2023/01/10 05:37:44;;;;;;;15.55;3.67;;;;;;;;;;6104772;19;20455;-75
2023/01/10 05:39:49;;;;;;;11.00;3.50;;;;;;;;;;6104932;19;20003;-75
2023/01/10 05:41:54;;;;;;;16.60;3.53;;;;;;;;;;6084732;19;20021;-75
2023/01/10 05:43:59;;;;;;;17.67;3.95;;;;;;;;;;6104126;19;20018;-75
2023/01/10 05:46:07;;;;;;;12.55;4.18;;;;;;;;;;6103710;19;20070;-75
2023/01/10 05:48:12;;;;;;;20.48;3.78;;;;;;;;;;6105620;19;20503;-75
2023/01/10 05:50:18;;;;;;;13.50;3.35;;;;;;;;;;6107721;19;20034;-75
2023/01/10 05:52:23;;;;;;;16.38;3.75;;;;;;;;;;6104313;19;20015;-75
2023/01/10 05:54:28;;;;;;;16.23;3.45;;;;;;;;;;6108041;19;20469;-76
2023/01/10 05:56:33;;;;;;;17.48;3.38;;;;;;;;;;6106131;19;20019;-75
2023/01/10 05:58:38;;;;;;;14.73;3.70;;;;;;;;;;6104662;19;20736;-75
2023/01/10 06:00:43;;;;;;;12.73;3.53;;;;;;;;;;6101896;19;20006;-75
2023/01/10 06:02:51;;;;;;;12.15;3.05;;;;;;;;;;6102953;19;20011;-76
2023/01/10 06:04:57;;;;;;;22.67;3.60;;;;;;;;;;6105081;19;20018;-75
2023/01/10 06:07:03;;;;;;;19.52;3.65;;;;;;;;;;6107191;19;20022;-76
2023/01/10 06:09:08;;;;;;;19.00;4.68;;;;;;;;;;6104795;19;20010;-75
2023/01/10 06:11:16;;;;;;;19.38;4.07;;;;;;;;;;6105503;19;20023;-75
2023/01/10 06:13:21;;;;;;;15.95;3.50;;;;;;;;;;6101466;19;20015;-75
2023/01/10 06:15:26;;;;;;;22.27;3.80;;;;;;;;;;6101077;19;20034;-75
2023/01/10 06:17:33;;;;;;;12.07;3.65;;;;;;;;;;6104703;19;20022;-76
2023/01/10 06:19:41;;;;;;;14.05;3.47;;;;;;;;;;6101998;19;20002;-75
2023/01/10 06:21:46;;;;;;;16.92;3.40;;;;;;;;;;6098049;19;20425;-76
2023/01/10 06:23:51;;;;;;;13.93;3.97;;;;;;;;;;6101561;19;20007;-75
2023/01/10 06:25:56;;;;;;;15.68;3.20;;;;;;;;;;6100983;19;20055;-75
2023/01/10 06:28:01;;;;;;;19.70;3.58;;;;;;;;;;6102080;19;20483;-75
2023/01/10 06:30:16;;;;;;;14.23;3.58;;;;;;;;;;6103093;19;20035;-74
2023/01/10 06:32:21;;;;;;;23.20;4.43;;;;;;;;;;6096356;19;20086;-74
2023/01/10 06:34:38;;;;;;;12.35;4.68;;;;;;;;;;6053267;19;20344;-73
2023/01/10 06:36:49;;;;;;;17.80;4.55;;;;;;;;;;6089183;19;20021;-74
2023/01/10 06:38:55;;;;;;;18.88;4.45;;;;;;;;;;6097623;19;20017;-73
2023/01/10 06:41:11;;;;;;;21.65;4.72;;;;;;;;;;6100896;19;20770;-73
2023/01/10 06:43:18;;;;;;;16.88;4.45;;;;;;;;;;6097100;19;20014;-73
2023/01/10 06:45:24;;;;;;;19.23;5.07;;;;;;;;;;6104523;19;20010;-74
2023/01/10 06:47:30;;;;;;;24.17;4.40;;;;;;;;;;6098293;19;20456;-73
2023/01/10 06:49:35;;;;;;;21.23;4.03;;;;;;;;;;6078539;19;20490;-72
2023/01/10 06:51:40;;;;;;;20.30;4.35;;;;;;;;;;6099354;19;20105;-74
2023/01/10 06:53:48;;;;;;;16.05;4.15;;;;;;;;;;6095485;19;20018;-73
2023/01/10 06:55:56;;;;;;;15.65;4.10;;;;;;;;;;6101828;19;20011;-73
2023/01/10 06:58:03;;;;;;;18.70;3.88;;;;;;;;;;6102197;19;20027;-74
2023/01/10 07:00:12;;;;;;;13.75;3.63;;;;;;;;;;6077234;19;20007;-73
2023/01/10 07:02:29;;;;;;;18.88;4.85;;;;;;;;;;6095041;19;20014;-74
2023/01/10 07:04:34;;;;;;;11.93;3.67;;;;;;;;;;6097746;19;20037;-74
2023/01/10 07:06:43;;;;;;;18.48;4.82;;;;;;;;;;6101086;19;20427;-73
2023/01/10 07:08:53;;;;;;;12.73;4.38;;;;;;;;;;6094367;19;20511;-74
2023/01/10 07:11:01;;;;;;;19.13;4.65;;;;;;;;;;6099349;19;20042;-74
2023/01/10 07:13:10;;;;;;;20.17;5.47;;;;;;;;;;6075944;19;20563;-74
2023/01/10 07:15:18;;;;;;;15.00;3.70;;;;;;;;;;6101338;19;20363;-74
2023/01/10 07:17:22;;;;;;;14.63;3.25;;;;;;;;;;6100467;19;20014;-74
2023/01/10 07:19:39;;;;;;;14.70;3.97;;;;;;;;;;6099451;19;20355;-73
2023/01/10 07:21:51;;;;;;;18.80;4.05;;;;;;;;;;6100927;19;20533;-73
2023/01/10 07:23:59;;;;;;;20.55;3.75;;;;;;;;;;6098657;19;20518;-73
2023/01/10 07:26:09;;;;;;;14.32;3.88;;;;;;;;;;6089109;19;20507;-74
2023/01/10 07:28:21;;;;;;;15.45;4.65;;;;;;;;;;6106548;19;20018;-73
2023/01/10 07:30:35;;;;;;;15.73;4.60;;;;;;;;;;6100625;19;20037;-73
2023/01/10 07:32:40;;;;;;;19.55;4.60;;;;;;;;;;6105077;19;20010;-73
2023/01/10 07:34:48;;;;;;;15.57;4.38;;;;;;;;;;6080820;19;20015;-73
2023/01/10 07:36:54;;;;;;;16.55;4.30;;;;;;;;;;6110839;19;20054;-75
2023/01/10 07:39:02;;;;;;;13.82;4.50;;;;;;;;;;6110706;19;20035;-74
2023/01/10 07:41:07;;;;;;;13.88;3.30;;;;;;;;;;6111070;19;20003;-75
2023/01/10 07:43:12;;;;;;;12.35;4.25;;;;;;;;;;6106500;19;20082;-74
2023/01/10 07:45:17;;;;;;;13.70;4.15;;;;;;;;;;6110425;19;20038;-73
2023/01/10 07:47:31;;;;;;;17.27;3.83;;;;;;;;;;6110680;19;20015;-75
2023/01/10 07:49:36;;;;;;;18.35;5.03;;;;;;;;;;6108168;19;20011;-73
2023/01/10 07:51:44;;;;;;;24.00;4.80;;;;;;;;;;6068090;19;20106;-75
2023/01/10 07:53:48;;;;;;;21.98;4.47;;;;;;;;;;6107227;19;20077;-75
2023/01/10 07:56:00;;;;;;;20.50;6.10;;;;;;;;;;6111551;19;20487;-75
2023/01/10 07:58:05;;;;;;;15.57;4.40;;;;;;;;;;6108847;19;20485;-74
2023/01/10 08:00:13;;;;;;;20.42;5.30;;;;;;;;;;6111562;19;20007;-76
2023/01/10 08:02:18;;;;;;;19.90;4.22;;;;;;;;;;6109499;19;20007;-74
2023/01/10 08:04:23;;;;;;;18.20;5.10;;;;;;;;;;6108910;19;20531;-75
2023/01/10 08:06:32;;;;;;;12.32;3.85;;;;;;;;;;6106447;19;20018;-73
2023/01/10 08:08:37;;;;;;;13.00;4.65;;;;;;;;;;6106199;19;20015;-74
2023/01/10 08:10:42;;;;;;;28.35;4.50;;;;;;;;;;6093539;19;20433;-75
2023/01/10 08:12:51;;;;;;;21.30;4.40;;;;;;;;;;6105513;19;20042;-74
2023/01/10 08:14:56;;;;;;;16.70;4.13;;;;;;;;;;6105557;19;20440;-74
2023/01/10 08:17:06;;;;;;;18.15;3.67;;;;;;;;;;6109667;19;20017;-74
2023/01/10 08:19:15;;;;;;;17.27;4.95;;;;;;;;;;6088760;19;20355;-74
2023/01/10 08:21:26;;;;;;;15.65;3.90;;;;;;;;;;6104008;19;20011;-74
2023/01/10 08:23:37;;;;;;;12.93;4.25;;;;;;;;;;6106378;19;20011;-74
2023/01/10 08:25:43;;;;;;;16.73;3.83;;;;;;;;;;6108521;19;20010;-73
2023/01/10 08:27:50;;;;;;;16.70;4.78;;;;;;;;;;6107457;19;20715;-72
2023/01/10 08:29:55;;;;;;;24.95;4.85;;;;;;;;;;6108177;19;20396;-73
2023/01/10 08:32:00;;;;;;;23.38;4.60;;;;;;;;;;6108586;19;20031;-73
2023/01/10 08:34:05;;;;;;;18.17;4.88;;;;;;;;;;6108781;19;20121;-75
2023/01/10 08:36:17;;;;;;;21.50;4.55;;;;;;;;;;6106916;19;20022;-74
2023/01/10 08:38:22;;;;;;;12.55;4.22;;;;;;;;;;6108908;19;20025;-74
2023/01/10 08:40:30;;;;;;;16.50;4.50;;;;;;;;;;6106797;19;20439;-74
2023/01/10 08:42:36;;;;;;;14.65;4.70;;;;;;;;;;6106625;19;20479;-73
2023/01/10 08:44:44;;;;;;;12.38;3.80;;;;;;;;;;6107727;19;20028;-72
2023/01/10 08:46:48;;;;;;;17.65;4.05;;;;;;;;;;6106627;19;20029;-73
2023/01/10 08:48:53;;;;;;;16.45;3.60;;;;;;;;;;6108668;19;20010;-72
2023/01/10 08:50:58;;;;;;;16.50;3.97;;;;;;;;;;6106800;19;20021;-74
2023/01/10 08:53:19;;;;;;;21.73;4.38;;;;;;;;;;6105362;19;20479;-73
2023/01/10 08:55:30;;;;;;;12.55;3.92;;;;;;;;;;6107120;19;20021;-74
2023/01/10 08:57:35;;;;;;;16.15;5.00;;;;;;;;;;6108679;19;20018;-74
2023/01/10 08:59:43;;;;;;;16.67;4.75;;;;;;;;;;6106122;19;20010;-73
2023/01/10 09:01:48;;;;;;;22.15;4.60;;;;;;;;;;6107458;19;20011;-74
2023/01/10 09:03:53;;;;;;;17.15;4.18;;;;;;;;;;6107103;19;20410;-73
2023/01/10 09:05:57;;;;;;;21.88;4.95;;;;;;;;;;6107791;19;20504;-75
2023/01/10 09:08:04;;;;;;;21.48;6.15;;;;;;;;;;6106807;19;20553;-74
2023/01/10 09:10:11;;;;;;;15.20;5.03;;;;;;;;;;6104910;19;20022;-73
2023/01/10 09:14:34;;;;;;;17.42;4.32;;;;;;;;;;6107354;19;20019;-74
2023/01/10 09:16:42;;;;;;;24.98;5.43;;;;;;;;;;6106711;19;20028;-73
2023/01/10 09:18:47;;;;;;;17.10;4.68;;;;;;;;;;6104175;19;20263;-73
2023/01/10 09:20:52;;;;;;;22.88;5.05;;;;;;;;;;6103451;19;20039;-74
2023/01/10 09:23:00;;;;;;;22.58;5.03;;;;;;;;;;6106889;19;20014;-74
2023/01/10 09:25:06;;;;;;;13.98;4.93;;;;;;;;;;6105177;19;20014;-73
2023/01/10 09:27:14;;;;;;;17.63;3.90;;;;;;;;;;6108175;19;20007;-74
2023/01/10 09:29:19;;;;;;;20.88;5.28;;;;;;;;;;6107677;19;20019;-73
2023/01/10 09:31:24;;;;;;;20.45;5.55;;;;;;;;;;6105817;19;20463;-74
2023/01/10 09:33:33;;;;;;;21.85;5.72;;;;;;;;;;6105693;19;20010;-74
2023/01/10 09:35:50;;;;;;;16.60;4.97;;;;;;;;;;6106653;19;20609;-74
2023/01/10 09:37:56;;;;;;;17.80;5.65;;;;;;;;;;6106137;19;20031;-73
2023/01/10 09:40:02;;;;;;;17.50;4.95;;;;;;;;;;6103729;19;20014;-73
2023/01/10 09:42:21;;;;;;;31.02;5.30;;;;;;;;;;6106093;19;20024;-74
2023/01/10 09:44:33;;;;;;;20.15;4.00;;;;;;;;;;6106680;19;20010;-73
2023/01/10 09:46:45;;;;;;;22.95;4.85;;;;;;;;;;6103302;19;20007;-73
2023/01/10 09:48:58;;;;;;;14.88;4.88;;;;;;;;;;6103169;19;20015;-74
2023/01/10 09:51:16;;;;;;;16.77;5.38;;;;;;;;;;6103290;19;20010;-74
2023/01/10 09:53:24;;;;;;;13.93;4.50;;;;;;;;;;6104364;19;20083;-73
2023/01/10 09:55:36;;;;;;;28.00;6.07;;;;;;;;;;6107107;19;20020;-73
2023/01/10 09:57:42;;;;;;;18.40;5.30;;;;;;;;;;6104751;19;20014;-73
2023/01/10 09:59:49;;;;;;;18.08;5.03;;;;;;;;;;6104887;19;20040;-73
2023/01/10 10:01:57;;;;;;;11.05;4.50;;;;;;;;;;6106770;19;20017;-73
2023/01/10 10:04:19;;;;;;;28.67;5.30;;;;;;;;;;6103514;19;20007;-72
2023/01/10 10:06:26;;;;;;;21.60;4.32;;;;;;;;;;6104894;19;20011;-73
2023/01/10 10:08:34;;;;;;;19.77;4.30;;;;;;;;;;6105127;19;20230;-73
2023/01/10 10:10:41;;;;;;;17.80;4.70;;;;;;;;;;6104875;19;20014;-73
2023/01/10 10:12:51;;;;;;;20.73;4.78;;;;;;;;;;6102109;19;20443;-72
2023/01/10 10:15:07;;;;;;;17.90;5.05;;;;;;;;;;6107038;19;20476;-72
2023/01/10 10:17:32;;;;;;;20.17;4.15;;;;;;;;;;6104464;19;20006;-72
2023/01/10 10:19:50;;;;;;;13.75;4.32;;;;;;;;;;6103500;19;20045;-73
2023/01/10 10:22:02;;;;;;;18.50;5.07;;;;;;;;;;6102679;19;20042;-73
2023/01/10 10:24:20;;;;;;;16.67;3.97;;;;;;;;;;6105694;19;20002;-73
2023/01/10 10:26:34;;;;;;;18.67;4.55;;;;;;;;;;6104651;19;20458;-73
2023/01/10 10:29:05;;;;;;;16.50;4.50;;;;;;;;;;6102050;19;20007;-73
2023/01/10 10:31:15;;;;;;;15.23;4.28;;;;;;;;;;6098622;19;20082;-73
2023/01/10 10:33:33;;;;;;;13.90;4.03;;;;;;;;;;6106458;19;20018;-73
2023/01/10 10:35:42;;;;;;;18.33;4.60;;;;;;;;;;6106570;19;20009;-73
2023/01/10 10:37:50;;;;;;;16.25;3.92;;;;;;;;;;6105166;19;20003;-74
2023/01/10 10:39:58;;;;;;;17.58;4.97;;;;;;;;;;6084243;19;20028;-74
2023/01/10 10:42:05;;;;;;;15.88;4.78;;;;;;;;;;6105733;19;20007;-73
2023/01/10 10:44:24;;;;;;;22.90;8.00;;;;;;;;;;6104936;19;20007;-74
2023/01/10 10:46:28;;;;;;;19.15;4.88;;;;;;;;;;6105663;19;20068;-73
2023/01/10 10:48:36;;;;;;;17.17;4.82;;;;;;;;;;6103996;19;20494;-73
2023/01/10 10:50:51;;;;;;;20.15;5.35;;;;;;;;;;6106072;19;20555;-73
2023/01/10 10:52:56;;;;;;;20.83;5.10;;;;;;;;;;6095714;19;20015;-72
2023/01/10 10:55:04;;;;;;;14.88;5.18;;;;;;;;;;6102775;19;20026;-72
2023/01/10 10:57:13;;;;;;;17.63;5.50;;;;;;;;;;6100960;19;20006;-73
2023/01/10 10:59:20;;;;;;;17.98;4.55;;;;;;;;;;6102781;19;20011;-73
2023/01/10 11:01:25;;;;;;;19.05;4.85;;;;;;;;;;6102036;19;20422;-74
2023/01/10 11:03:39;;;;;;;16.77;4.38;;;;;;;;;;6104148;19;20014;-74
2023/01/10 11:05:48;;;;;;;24.38;5.78;;;;;;;;;;6105853;19;20121;-74
2023/01/10 11:07:55;;;;;;;18.40;4.43;;;;;;;;;;6081255;19;20038;-74
2023/01/10 11:12:18;;;;;;;18.08;5.55;;;;;;;;;;6102010;19;20047;-73
2023/01/10 11:14:44;;;;;;;14.13;4.40;;;;;;;;;;6101860;19;20837;-73
2023/01/10 11:16:49;;;;;;;18.08;4.68;;;;;;;;;;6101029;19;20482;-72
2023/01/10 11:19:15;;;;;;;15.80;4.32;;;;;;;;;;6082819;19;20021;-74
2023/01/10 11:21:22;;;;;;;15.23;3.60;;;;;;;;;;6100083;19;20019;-72
2023/01/10 11:23:40;;;;;;;21.42;4.50;;;;;;;;;;6080416;19;20114;-73
2023/01/10 11:25:48;;;;;;;15.20;4.18;;;;;;;;;;6100758;19;20011;-74
2023/01/10 11:27:55;;;;;;;19.67;4.35;;;;;;;;;;6103526;19;20010;-73
2023/01/10 11:30:02;;;;;;;17.48;4.75;;;;;;;;;;6104426;19;20027;-74
2023/01/10 11:32:14;;;;;;;19.98;4.75;;;;;;;;;;6102332;19;20018;-75
2023/01/10 11:34:23;;;;;;;14.43;4.90;;;;;;;;;;6100527;19;20018;-75
2023/01/10 11:36:33;;;;;;;25.70;4.25;;;;;;;;;;6098899;19;20018;-74
2023/01/10 11:38:39;;;;;;;16.73;3.78;;;;;;;;;;6083435;19;20023;-73
2023/01/10 11:40:56;;;;;;;19.50;5.18;;;;;;;;;;6099003;19;20415;-73
2023/01/10 11:43:20;;;;;;;23.42;4.53;;;;;;;;;;6096792;19;20070;-75
2023/01/10 11:45:39;;;;;;;13.68;4.03;;;;;;;;;;6100321;19;20015;-75
2023/01/10 11:47:45;;;;;;;22.65;4.88;;;;;;;;;;6098544;19;20486;-74
2023/01/10 11:49:51;;;;;;;17.10;3.95;;;;;;;;;;6102454;19;20015;-74
2023/01/10 11:52:03;;;;;;;19.77;5.35;;;;;;;;;;6101767;19;20114;-74
2023/01/10 11:54:14;;;;;;;19.65;5.40;;;;;;;;;;6101178;19;20022;-74
2023/01/10 11:56:26;;;;;;;14.25;4.32;;;;;;;;;;6102720;19;20534;-75
2023/01/10 11:58:33;;;;;;;16.10;4.45;;;;;;;;;;6101387;19;20042;-75
2023/01/10 12:00:42;;;;;;;13.68;4.05;;;;;;;;;;6102831;19;20847;-75
2023/01/10 12:02:49;;;;;;;13.57;4.80;;;;;;;;;;6082966;19;20018;-75
2023/01/10 12:04:55;;;;;;;18.50;4.93;;;;;;;;;;6076389;19;20316;-75
2023/01/10 12:07:05;;;;;;;14.55;4.60;;;;;;;;;;6100041;19;20499;-75
2023/01/10 12:09:34;;;;;;;13.80;3.97;;;;;;;;;;6102389;19;20497;-75
2023/01/10 12:11:40;;;;;;;19.08;4.90;;;;;;;;;;6105749;19;20031;-75
2023/01/10 12:13:47;;;;;;;15.23;5.45;;;;;;;;;;6107599;19;20005;-75
2023/01/10 12:15:52;;;;;;;15.20;3.83;;;;;;;;;;6110623;19;20284;-75
2023/01/10 12:17:59;;;;;;;19.17;4.10;;;;;;;;;;6108247;19;20006;-74
2023/01/10 12:20:08;;;;;;;14.27;4.65;;;;;;;;;;6107452;19;20777;-75
2023/01/10 12:22:17;;;;;;;18.15;4.50;;;;;;;;;;6107802;19;20021;-74
2023/01/10 12:24:25;;;;;;;19.52;4.20;;;;;;;;;;6109391;19;20010;-74
2023/01/10 12:26:35;;;;;;;19.13;5.25;;;;;;;;;;6108681;19;20035;-75
2023/01/10 12:28:40;;;;;;;15.75;4.57;;;;;;;;;;6109614;19;20002;-75
2023/01/10 12:30:49;;;;;;;16.35;3.92;;;;;;;;;;6105793;19;20506;-73
2023/01/10 12:32:56;;;;;;;19.00;4.07;;;;;;;;;;6104347;19;20530;-75
2023/01/10 12:35:03;;;;;;;14.55;4.15;;;;;;;;;;6108795;19;20419;-74
2023/01/10 12:37:18;;;;;;;17.50;5.13;;;;;;;;;;6109202;19;20006;-73
2023/01/10 12:39:24;;;;;;;16.40;4.78;;;;;;;;;;6109298;19;20868;-75
2023/01/10 12:46:20;;;;;;;20.75;4.63;;;;;;;;;;6108404;19;20013;-76
2023/01/10 12:48:49;;;;;;;23.45;5.18;;;;;;;;;;6100636;19;20038;-75
2023/01/10 12:50:57;;;;;;;10.63;4.35;;;;;;;;;;6106399;19;20011;-73
2023/01/10 12:53:13;;;;;;;11.90;4.43;;;;;;;;;;6103860;19;20034;-74
2023/01/10 12:55:25;;;;;;;18.52;4.78;;;;;;;;;;6085473;19;20021;-74
2023/01/10 12:57:34;;;;;;;16.40;5.03;;;;;;;;;;6100713;19;20010;-74